sensor_id;sensor_type;location;lat;lon;timestamp;P1;durP1;ratioP1;P2;durP2;ratioP2
5343;SDS011;2694;48.950;8.970;2022-12-10T00:01:47;32.88;;;17.35;;
5343;SDS011;2694;48.950;8.970;2022-12-10T00:04:15;32.67;;;16.55;;
5343;SDS011;2694;48.950;8.970;2022-12-10T00:06:42;28.10;;;16.10;;
5343;SDS011;2694;48.950;8.970;2022-12-10T00:09:12;33.67;;;16.88;;
5343;SDS011;2694;48.950;8.970;2022-12-10T00:11:42;34.05;;;16.98;;
5343;SDS011;2694;48.950;8.970;2022-12-10T00:14:09;32.47;;;17.52;;
5343;SDS011;2694;48.950;8.970;2022-12-10T00:16:38;33.55;;;18.65;;
5343;SDS011;2694;48.950;8.970;2022-12-10T00:19:06;32.45;;;16.90;;
5343;SDS011;2694;48.950;8.970;2022-12-10T00:21:34;33.00;;;17.58;;
5343;SDS011;2694;48.950;8.970;2022-12-10T00:24:02;32.92;;;17.83;;
5343;SDS011;2694;48.950;8.970;2022-12-10T00:26:30;33.20;;;17.55;;
5343;SDS011;2694;48.950;8.970;2022-12-10T00:29:01;35.17;;;17.95;;
5343;SDS011;2694;48.950;8.970;2022-12-10T00:31:30;32.15;;;17.52;;
5343;SDS011;2694;48.950;8.970;2022-12-10T00:33:59;32.47;;;17.10;;
5343;SDS011;2694;48.950;8.970;2022-12-10T00:36:29;29.08;;;17.30;;
5343;SDS011;2694;48.950;8.970;2022-12-10T00:38:57;30.13;;;16.73;;
5343;SDS011;2694;48.950;8.970;2022-12-10T00:41:25;34.10;;;18.45;;
5343;SDS011;2694;48.950;8.970;2022-12-10T00:43:53;31.73;;;17.23;;
5343;SDS011;2694;48.950;8.970;2022-12-10T00:46:24;29.92;;;16.77;;
5343;SDS011;2694;48.950;8.970;2022-12-10T00:48:51;31.95;;;17.25;;
5343;SDS011;2694;48.950;8.970;2022-12-10T00:51:19;29.73;;;16.70;;
5343;SDS011;2694;48.950;8.970;2022-12-10T00:53:48;31.23;;;17.13;;
5343;SDS011;2694;48.950;8.970;2022-12-10T00:56:18;29.40;;;16.17;;
5343;SDS011;2694;48.950;8.970;2022-12-10T00:58:46;32.40;;;16.58;;
5343;SDS011;2694;48.950;8.970;2022-12-10T01:01:15;32.20;;;17.70;;
5343;SDS011;2694;48.950;8.970;2022-12-10T01:03:46;32.03;;;18.23;;
5343;SDS011;2694;48.950;8.970;2022-12-10T01:06:15;33.78;;;19.00;;
5343;SDS011;2694;48.950;8.970;2022-12-10T01:08:43;33.78;;;19.15;;
5343;SDS011;2694;48.950;8.970;2022-12-10T01:11:11;33.63;;;17.40;;
5343;SDS011;2694;48.950;8.970;2022-12-10T01:13:40;32.42;;;17.00;;
5343;SDS011;2694;48.950;8.970;2022-12-10T01:16:08;33.15;;;18.00;;
5343;SDS011;2694;48.950;8.970;2022-12-10T01:18:36;32.10;;;17.73;;
5343;SDS011;2694;48.950;8.970;2022-12-10T01:21:05;32.33;;;18.20;;
5343;SDS011;2694;48.950;8.970;2022-12-10T01:23:34;30.90;;;16.98;;
5343;SDS011;2694;48.950;8.970;2022-12-10T01:26:03;28.83;;;16.97;;
5343;SDS011;2694;48.950;8.970;2022-12-10T01:28:32;27.95;;;15.43;;
5343;SDS011;2694;48.950;8.970;2022-12-10T01:31:01;28.77;;;16.73;;
5343;SDS011;2694;48.950;8.970;2022-12-10T01:33:29;30.33;;;16.58;;
5343;SDS011;2694;48.950;8.970;2022-12-10T01:35:56;32.08;;;16.92;;
5343;SDS011;2694;48.950;8.970;2022-12-10T01:38:24;28.17;;;15.40;;
5343;SDS011;2694;48.950;8.970;2022-12-10T01:40:51;30.15;;;16.33;;
5343;SDS011;2694;48.950;8.970;2022-12-10T01:43:18;27.70;;;15.20;;
5343;SDS011;2694;48.950;8.970;2022-12-10T01:45:45;29.83;;;17.20;;
5343;SDS011;2694;48.950;8.970;2022-12-10T01:48:12;38.03;;;16.73;;
5343;SDS011;2694;48.950;8.970;2022-12-10T01:50:39;30.40;;;16.77;;
5343;SDS011;2694;48.950;8.970;2022-12-10T01:53:06;29.42;;;17.38;;
5343;SDS011;2694;48.950;8.970;2022-12-10T01:55:37;30.70;;;17.95;;
5343;SDS011;2694;48.950;8.970;2022-12-10T01:58:09;29.20;;;16.98;;
5343;SDS011;2694;48.950;8.970;2022-12-10T02:00:37;31.45;;;18.15;;
5343;SDS011;2694;48.950;8.970;2022-12-10T02:03:10;34.35;;;17.52;;
5343;SDS011;2694;48.950;8.970;2022-12-10T02:05:47;31.05;;;17.17;;
5343;SDS011;2694;48.950;8.970;2022-12-10T02:08:22;32.15;;;16.73;;
5343;SDS011;2694;48.950;8.970;2022-12-10T02:10:58;31.17;;;16.23;;
5343;SDS011;2694;48.950;8.970;2022-12-10T02:13:34;30.25;;;16.45;;
5343;SDS011;2694;48.950;8.970;2022-12-10T02:16:06;29.65;;;16.30;;
5343;SDS011;2694;48.950;8.970;2022-12-10T02:18:39;28.98;;;15.25;;
5343;SDS011;2694;48.950;8.970;2022-12-10T02:21:12;26.63;;;15.23;;
5343;SDS011;2694;48.950;8.970;2022-12-10T02:23:44;30.27;;;15.85;;
5343;SDS011;2694;48.950;8.970;2022-12-10T02:26:16;28.67;;;16.02;;
5343;SDS011;2694;48.950;8.970;2022-12-10T02:28:50;30.50;;;16.30;;
5343;SDS011;2694;48.950;8.970;2022-12-10T02:31:23;29.17;;;15.95;;
5343;SDS011;2694;48.950;8.970;2022-12-10T02:33:53;27.50;;;15.52;;
5343;SDS011;2694;48.950;8.970;2022-12-10T02:36:23;30.30;;;16.08;;
5343;SDS011;2694;48.950;8.970;2022-12-10T02:38:54;25.00;;;14.45;;
5343;SDS011;2694;48.950;8.970;2022-12-10T02:41:25;29.50;;;16.27;;
5343;SDS011;2694;48.950;8.970;2022-12-10T02:43:55;31.08;;;16.30;;
5343;SDS011;2694;48.950;8.970;2022-12-10T02:46:25;33.00;;;16.90;;
5343;SDS011;2694;48.950;8.970;2022-12-10T02:48:55;29.27;;;17.00;;
5343;SDS011;2694;48.950;8.970;2022-12-10T02:51:23;32.08;;;16.67;;
5343;SDS011;2694;48.950;8.970;2022-12-10T02:53:58;33.85;;;17.30;;
5343;SDS011;2694;48.950;8.970;2022-12-10T02:56:27;30.63;;;15.85;;
5343;SDS011;2694;48.950;8.970;2022-12-10T02:59:01;28.60;;;16.08;;
5343;SDS011;2694;48.950;8.970;2022-12-10T03:01:38;25.98;;;15.15;;
5343;SDS011;2694;48.950;8.970;2022-12-10T03:04:13;26.42;;;14.88;;
5343;SDS011;2694;48.950;8.970;2022-12-10T03:06:44;28.55;;;16.23;;
5343;SDS011;2694;48.950;8.970;2022-12-10T03:09:19;30.85;;;16.30;;
5343;SDS011;2694;48.950;8.970;2022-12-10T03:11:49;26.48;;;15.55;;
5343;SDS011;2694;48.950;8.970;2022-12-10T03:14:25;30.23;;;15.32;;
5343;SDS011;2694;48.950;8.970;2022-12-10T03:16:57;30.42;;;15.75;;
5343;SDS011;2694;48.950;8.970;2022-12-10T03:19:27;26.38;;;15.60;;
5343;SDS011;2694;48.950;8.970;2022-12-10T03:22:03;29.30;;;15.57;;
5343;SDS011;2694;48.950;8.970;2022-12-10T03:24:32;29.97;;;16.10;;
5343;SDS011;2694;48.950;8.970;2022-12-10T03:27:04;31.98;;;17.10;;
5343;SDS011;2694;48.950;8.970;2022-12-10T03:29:33;36.65;;;16.60;;
5343;SDS011;2694;48.950;8.970;2022-12-10T03:32:05;31.75;;;17.65;;
5343;SDS011;2694;48.950;8.970;2022-12-10T03:34:32;30.45;;;16.58;;
5343;SDS011;2694;48.950;8.970;2022-12-10T03:37:00;29.98;;;16.08;;
5343;SDS011;2694;48.950;8.970;2022-12-10T03:39:28;29.85;;;16.13;;
5343;SDS011;2694;48.950;8.970;2022-12-10T03:41:55;34.58;;;17.27;;
5343;SDS011;2694;48.950;8.970;2022-12-10T03:44:29;36.83;;;18.17;;
5343;SDS011;2694;48.950;8.970;2022-12-10T03:46:57;32.00;;;16.73;;
5343;SDS011;2694;48.950;8.970;2022-12-10T03:49:26;31.08;;;16.55;;
5343;SDS011;2694;48.950;8.970;2022-12-10T03:51:53;28.77;;;16.90;;
5343;SDS011;2694;48.950;8.970;2022-12-10T03:54:20;31.02;;;15.68;;
5343;SDS011;2694;48.950;8.970;2022-12-10T03:56:47;27.58;;;15.60;;
5343;SDS011;2694;48.950;8.970;2022-12-10T03:59:15;36.95;;;17.67;;
5343;SDS011;2694;48.950;8.970;2022-12-10T04:01:41;40.17;;;19.23;;
5343;SDS011;2694;48.950;8.970;2022-12-10T04:04:09;35.55;;;18.75;;
5343;SDS011;2694;48.950;8.970;2022-12-10T04:06:38;41.80;;;19.97;;
5343;SDS011;2694;48.950;8.970;2022-12-10T04:09:06;40.65;;;20.30;;
5343;SDS011;2694;48.950;8.970;2022-12-10T04:11:35;37.45;;;18.33;;
5343;SDS011;2694;48.950;8.970;2022-12-10T04:14:02;34.55;;;18.60;;
5343;SDS011;2694;48.950;8.970;2022-12-10T04:16:47;34.78;;;17.67;;
5343;SDS011;2694;48.950;8.970;2022-12-10T04:19:15;33.60;;;18.20;;
5343;SDS011;2694;48.950;8.970;2022-12-10T04:21:45;32.58;;;17.92;;
5343;SDS011;2694;48.950;8.970;2022-12-10T04:24:30;32.05;;;17.45;;
5343;SDS011;2694;48.950;8.970;2022-12-10T04:27:16;33.20;;;17.30;;
5343;SDS011;2694;48.950;8.970;2022-12-10T04:29:46;33.50;;;17.00;;
5343;SDS011;2694;48.950;8.970;2022-12-10T04:32:13;31.50;;;17.60;;
5343;SDS011;2694;48.950;8.970;2022-12-10T04:34:40;34.50;;;17.50;;
5343;SDS011;2694;48.950;8.970;2022-12-10T04:37:09;34.88;;;17.58;;
5343;SDS011;2694;48.950;8.970;2022-12-10T04:39:37;36.15;;;17.05;;
5343;SDS011;2694;48.950;8.970;2022-12-10T04:42:04;33.65;;;18.27;;
5343;SDS011;2694;48.950;8.970;2022-12-10T04:44:32;30.83;;;16.60;;
5343;SDS011;2694;48.950;8.970;2022-12-10T04:46:59;32.42;;;16.70;;
5343;SDS011;2694;48.950;8.970;2022-12-10T04:49:26;33.97;;;17.02;;
5343;SDS011;2694;48.950;8.970;2022-12-10T04:51:53;33.45;;;17.27;;
5343;SDS011;2694;48.950;8.970;2022-12-10T04:54:23;31.55;;;16.65;;
5343;SDS011;2694;48.950;8.970;2022-12-10T04:56:50;35.20;;;18.38;;
5343;SDS011;2694;48.950;8.970;2022-12-10T04:59:17;37.37;;;18.23;;
5343;SDS011;2694;48.950;8.970;2022-12-10T05:01:44;33.80;;;17.40;;
5343;SDS011;2694;48.950;8.970;2022-12-10T05:04:12;32.45;;;17.25;;
5343;SDS011;2694;48.950;8.970;2022-12-10T05:06:40;32.33;;;17.02;;
5343;SDS011;2694;48.950;8.970;2022-12-10T05:09:07;32.67;;;16.60;;
5343;SDS011;2694;48.950;8.970;2022-12-10T05:11:38;32.08;;;17.33;;
5343;SDS011;2694;48.950;8.970;2022-12-10T05:14:05;31.63;;;17.70;;
5343;SDS011;2694;48.950;8.970;2022-12-10T05:16:33;32.72;;;17.50;;
5343;SDS011;2694;48.950;8.970;2022-12-10T05:19:00;31.15;;;18.00;;
5343;SDS011;2694;48.950;8.970;2022-12-10T05:21:28;37.03;;;18.05;;
5343;SDS011;2694;48.950;8.970;2022-12-10T05:24:18;30.98;;;16.08;;
5343;SDS011;2694;48.950;8.970;2022-12-10T05:26:45;28.83;;;15.00;;
5343;SDS011;2694;48.950;8.970;2022-12-10T05:29:16;30.83;;;16.50;;
5343;SDS011;2694;48.950;8.970;2022-12-10T05:31:43;29.67;;;16.33;;
5343;SDS011;2694;48.950;8.970;2022-12-10T05:34:10;29.27;;;15.70;;
5343;SDS011;2694;48.950;8.970;2022-12-10T05:36:37;31.48;;;17.38;;
5343;SDS011;2694;48.950;8.970;2022-12-10T05:39:05;32.17;;;16.75;;
5343;SDS011;2694;48.950;8.970;2022-12-10T05:41:34;34.53;;;17.70;;
5343;SDS011;2694;48.950;8.970;2022-12-10T05:44:04;30.15;;;17.05;;
5343;SDS011;2694;48.950;8.970;2022-12-10T05:46:41;32.47;;;17.13;;
5343;SDS011;2694;48.950;8.970;2022-12-10T05:49:15;31.38;;;15.75;;
5343;SDS011;2694;48.950;8.970;2022-12-10T05:54:43;30.38;;;17.05;;
5343;SDS011;2694;48.950;8.970;2022-12-10T05:57:10;30.92;;;17.20;;
5343;SDS011;2694;48.950;8.970;2022-12-10T05:59:39;32.53;;;17.60;;
5343;SDS011;2694;48.950;8.970;2022-12-10T06:02:08;30.70;;;16.30;;
5343;SDS011;2694;48.950;8.970;2022-12-10T06:04:38;36.07;;;18.00;;
5343;SDS011;2694;48.950;8.970;2022-12-10T06:07:05;33.33;;;18.23;;
5343;SDS011;2694;48.950;8.970;2022-12-10T06:09:32;35.20;;;18.08;;
5343;SDS011;2694;48.950;8.970;2022-12-10T06:11:59;31.20;;;17.48;;
5343;SDS011;2694;48.950;8.970;2022-12-10T06:14:26;29.58;;;17.15;;
5343;SDS011;2694;48.950;8.970;2022-12-10T06:16:54;31.45;;;16.83;;
5343;SDS011;2694;48.950;8.970;2022-12-10T06:19:21;32.15;;;16.83;;
5343;SDS011;2694;48.950;8.970;2022-12-10T06:21:50;33.08;;;17.95;;
5343;SDS011;2694;48.950;8.970;2022-12-10T06:24:17;32.43;;;17.70;;
5343;SDS011;2694;48.950;8.970;2022-12-10T06:27:02;32.38;;;16.80;;
5343;SDS011;2694;48.950;8.970;2022-12-10T06:29:31;34.35;;;18.23;;
5343;SDS011;2694;48.950;8.970;2022-12-10T06:31:59;36.33;;;19.42;;
5343;SDS011;2694;48.950;8.970;2022-12-10T06:34:26;34.17;;;18.05;;
5343;SDS011;2694;48.950;8.970;2022-12-10T06:37:01;34.83;;;18.55;;
5343;SDS011;2694;48.950;8.970;2022-12-10T06:39:29;34.88;;;19.77;;
5343;SDS011;2694;48.950;8.970;2022-12-10T06:41:59;34.80;;;18.95;;
5343;SDS011;2694;48.950;8.970;2022-12-10T06:44:26;38.10;;;19.50;;
5343;SDS011;2694;48.950;8.970;2022-12-10T06:46:53;35.15;;;19.00;;
5343;SDS011;2694;48.950;8.970;2022-12-10T06:49:22;34.03;;;18.80;;
5343;SDS011;2694;48.950;8.970;2022-12-10T06:51:49;36.10;;;19.30;;
5343;SDS011;2694;48.950;8.970;2022-12-10T06:54:16;38.03;;;19.83;;
5343;SDS011;2694;48.950;8.970;2022-12-10T06:56:46;39.40;;;19.88;;
5343;SDS011;2694;48.950;8.970;2022-12-10T06:59:16;35.67;;;18.67;;
5343;SDS011;2694;48.950;8.970;2022-12-10T07:01:45;31.23;;;17.58;;
5343;SDS011;2694;48.950;8.970;2022-12-10T07:04:12;32.85;;;17.58;;
5343;SDS011;2694;48.950;8.970;2022-12-10T07:06:41;33.70;;;17.40;;
5343;SDS011;2694;48.950;8.970;2022-12-10T07:09:08;39.95;;;19.67;;
5343;SDS011;2694;48.950;8.970;2022-12-10T07:11:36;39.95;;;20.38;;
5343;SDS011;2694;48.950;8.970;2022-12-10T07:14:04;36.30;;;20.27;;
5343;SDS011;2694;48.950;8.970;2022-12-10T07:16:32;40.33;;;21.77;;
5343;SDS011;2694;48.950;8.970;2022-12-10T07:19:00;36.58;;;19.50;;
5343;SDS011;2694;48.950;8.970;2022-12-10T07:21:28;37.03;;;19.95;;
5343;SDS011;2694;48.950;8.970;2022-12-10T07:24:00;42.97;;;22.27;;
5343;SDS011;2694;48.950;8.970;2022-12-10T07:26:30;42.83;;;22.00;;
5343;SDS011;2694;48.950;8.970;2022-12-10T07:29:00;37.85;;;21.42;;
5343;SDS011;2694;48.950;8.970;2022-12-10T07:31:28;39.33;;;19.98;;
5343;SDS011;2694;48.950;8.970;2022-12-10T07:33:58;37.17;;;19.33;;
5343;SDS011;2694;48.950;8.970;2022-12-10T07:36:26;38.80;;;19.48;;
5343;SDS011;2694;48.950;8.970;2022-12-10T07:39:14;36.35;;;19.60;;
5343;SDS011;2694;48.950;8.970;2022-12-10T07:42:02;36.75;;;20.20;;
5343;SDS011;2694;48.950;8.970;2022-12-10T07:44:35;33.63;;;18.80;;
5343;SDS011;2694;48.950;8.970;2022-12-10T07:47:05;35.22;;;19.08;;
5343;SDS011;2694;48.950;8.970;2022-12-10T07:49:32;32.92;;;19.33;;
5343;SDS011;2694;48.950;8.970;2022-12-10T07:52:04;39.63;;;19.80;;
5343;SDS011;2694;48.950;8.970;2022-12-10T07:54:33;36.33;;;18.83;;
5343;SDS011;2694;48.950;8.970;2022-12-10T07:57:00;34.08;;;18.58;;
5343;SDS011;2694;48.950;8.970;2022-12-10T07:59:30;38.50;;;19.45;;
5343;SDS011;2694;48.950;8.970;2022-12-10T08:02:00;32.83;;;18.00;;
5343;SDS011;2694;48.950;8.970;2022-12-10T08:04:37;34.57;;;17.77;;
5343;SDS011;2694;48.950;8.970;2022-12-10T08:07:09;38.25;;;18.40;;
5343;SDS011;2694;48.950;8.970;2022-12-10T08:09:42;35.83;;;19.48;;
5343;SDS011;2694;48.950;8.970;2022-12-10T08:12:10;38.80;;;20.67;;
5343;SDS011;2694;48.950;8.970;2022-12-10T08:14:38;38.10;;;19.45;;
5343;SDS011;2694;48.950;8.970;2022-12-10T08:17:05;36.17;;;19.60;;
5343;SDS011;2694;48.950;8.970;2022-12-10T08:19:32;33.83;;;19.00;;
5343;SDS011;2694;48.950;8.970;2022-12-10T08:21:59;42.30;;;20.17;;
5343;SDS011;2694;48.950;8.970;2022-12-10T08:24:26;33.22;;;18.05;;
5343;SDS011;2694;48.950;8.970;2022-12-10T08:26:54;33.05;;;17.02;;
5343;SDS011;2694;48.950;8.970;2022-12-10T08:29:21;34.28;;;17.33;;
5343;SDS011;2694;48.950;8.970;2022-12-10T08:31:48;29.85;;;16.70;;
5343;SDS011;2694;48.950;8.970;2022-12-10T08:34:15;35.30;;;19.60;;
5343;SDS011;2694;48.950;8.970;2022-12-10T08:36:43;29.15;;;16.88;;
5343;SDS011;2694;48.950;8.970;2022-12-10T08:39:11;29.40;;;16.10;;
5343;SDS011;2694;48.950;8.970;2022-12-10T08:41:40;34.25;;;18.08;;
5343;SDS011;2694;48.950;8.970;2022-12-10T08:44:09;31.65;;;18.48;;
5343;SDS011;2694;48.950;8.970;2022-12-10T08:46:36;34.28;;;17.13;;
5343;SDS011;2694;48.950;8.970;2022-12-10T08:49:03;35.10;;;18.38;;
5343;SDS011;2694;48.950;8.970;2022-12-10T08:51:31;33.85;;;17.40;;
5343;SDS011;2694;48.950;8.970;2022-12-10T08:53:58;31.67;;;18.10;;
5343;SDS011;2694;48.950;8.970;2022-12-10T08:56:26;32.45;;;17.00;;
5343;SDS011;2694;48.950;8.970;2022-12-10T08:58:53;31.90;;;17.03;;
5343;SDS011;2694;48.950;8.970;2022-12-10T09:01:22;26.90;;;16.17;;
5343;SDS011;2694;48.950;8.970;2022-12-10T09:03:49;29.40;;;16.40;;
5343;SDS011;2694;48.950;8.970;2022-12-10T09:06:18;30.08;;;16.63;;
5343;SDS011;2694;48.950;8.970;2022-12-10T09:08:45;29.48;;;16.70;;
5343;SDS011;2694;48.950;8.970;2022-12-10T09:11:13;31.45;;;17.80;;
5343;SDS011;2694;48.950;8.970;2022-12-10T09:13:42;29.38;;;16.92;;
5343;SDS011;2694;48.950;8.970;2022-12-10T09:16:09;34.03;;;18.05;;
5343;SDS011;2694;48.950;8.970;2022-12-10T09:18:38;32.63;;;17.33;;
5343;SDS011;2694;48.950;8.970;2022-12-10T09:21:06;27.70;;;16.50;;
5343;SDS011;2694;48.950;8.970;2022-12-10T09:23:34;28.70;;;16.63;;
5343;SDS011;2694;48.950;8.970;2022-12-10T09:26:04;29.17;;;17.27;;
5343;SDS011;2694;48.950;8.970;2022-12-10T09:28:33;31.50;;;16.63;;
5343;SDS011;2694;48.950;8.970;2022-12-10T09:31:00;29.95;;;17.10;;
5343;SDS011;2694;48.950;8.970;2022-12-10T09:33:29;32.07;;;18.17;;
5343;SDS011;2694;48.950;8.970;2022-12-10T09:35:58;31.70;;;17.95;;
5343;SDS011;2694;48.950;8.970;2022-12-10T09:38:25;31.65;;;17.52;;
5343;SDS011;2694;48.950;8.970;2022-12-10T09:40:55;32.33;;;16.10;;
5343;SDS011;2694;48.950;8.970;2022-12-10T09:43:39;26.70;;;16.65;;
5343;SDS011;2694;48.950;8.970;2022-12-10T09:46:14;29.33;;;16.52;;
5343;SDS011;2694;48.950;8.970;2022-12-10T09:48:52;25.95;;;15.30;;
5343;SDS011;2694;48.950;8.970;2022-12-10T09:51:31;28.27;;;15.40;;
5343;SDS011;2694;48.950;8.970;2022-12-10T09:54:00;29.65;;;15.68;;
5343;SDS011;2694;48.950;8.970;2022-12-10T09:56:31;28.45;;;16.17;;
5343;SDS011;2694;48.950;8.970;2022-12-10T09:59:00;26.88;;;15.25;;
5343;SDS011;2694;48.950;8.970;2022-12-10T10:01:32;23.13;;;13.70;;
5343;SDS011;2694;48.950;8.970;2022-12-10T10:04:02;29.73;;;18.17;;
5343;SDS011;2694;48.950;8.970;2022-12-10T10:06:31;27.55;;;15.02;;
5343;SDS011;2694;48.950;8.970;2022-12-10T10:08:59;27.45;;;14.45;;
5343;SDS011;2694;48.950;8.970;2022-12-10T10:11:29;27.48;;;15.18;;
5343;SDS011;2694;48.950;8.970;2022-12-10T10:13:58;27.67;;;15.55;;
5343;SDS011;2694;48.950;8.970;2022-12-10T10:16:28;31.13;;;16.50;;
5343;SDS011;2694;48.950;8.970;2022-12-10T10:19:01;29.03;;;16.07;;
5343;SDS011;2694;48.950;8.970;2022-12-10T10:21:32;29.90;;;16.85;;
5343;SDS011;2694;48.950;8.970;2022-12-10T10:24:02;29.63;;;17.47;;
5343;SDS011;2694;48.950;8.970;2022-12-10T10:26:31;29.90;;;16.45;;
5343;SDS011;2694;48.950;8.970;2022-12-10T10:28:59;27.30;;;15.55;;
5343;SDS011;2694;48.950;8.970;2022-12-10T10:31:31;27.40;;;15.13;;
5343;SDS011;2694;48.950;8.970;2022-12-10T10:34:00;28.63;;;16.30;;
5343;SDS011;2694;48.950;8.970;2022-12-10T10:36:30;23.70;;;14.20;;
5343;SDS011;2694;48.950;8.970;2022-12-10T10:39:07;31.08;;;15.50;;
5343;SDS011;2694;48.950;8.970;2022-12-10T10:41:45;25.52;;;14.70;;
5343;SDS011;2694;48.950;8.970;2022-12-10T10:44:19;27.50;;;14.80;;
5343;SDS011;2694;48.950;8.970;2022-12-10T10:46:49;26.38;;;15.77;;
5343;SDS011;2694;48.950;8.970;2022-12-10T10:49:19;28.67;;;16.08;;
5343;SDS011;2694;48.950;8.970;2022-12-10T10:51:51;31.67;;;16.33;;
5343;SDS011;2694;48.950;8.970;2022-12-10T10:54:30;31.70;;;18.20;;
5343;SDS011;2694;48.950;8.970;2022-12-10T10:57:01;43.03;;;17.55;;
5343;SDS011;2694;48.950;8.970;2022-12-10T10:59:31;33.88;;;17.73;;
5343;SDS011;2694;48.950;8.970;2022-12-10T11:02:03;31.45;;;17.00;;
5343;SDS011;2694;48.950;8.970;2022-12-10T11:04:45;34.17;;;18.95;;
5343;SDS011;2694;48.950;8.970;2022-12-10T11:07:23;29.63;;;16.70;;
5343;SDS011;2694;48.950;8.970;2022-12-10T11:09:58;31.70;;;17.80;;
5343;SDS011;2694;48.950;8.970;2022-12-10T11:12:28;32.08;;;17.23;;
5343;SDS011;2694;48.950;8.970;2022-12-10T11:15:27;32.53;;;18.70;;
5343;SDS011;2694;48.950;8.970;2022-12-10T11:17:57;37.23;;;18.20;;
5343;SDS011;2694;48.950;8.970;2022-12-10T11:20:27;32.95;;;17.20;;
5343;SDS011;2694;48.950;8.970;2022-12-10T11:23:08;34.28;;;18.55;;
5343;SDS011;2694;48.950;8.970;2022-12-10T11:25:41;31.23;;;17.52;;
5343;SDS011;2694;48.950;8.970;2022-12-10T11:28:21;35.13;;;19.37;;
5343;SDS011;2694;48.950;8.970;2022-12-10T11:31:05;35.03;;;18.00;;
5343;SDS011;2694;48.950;8.970;2022-12-10T11:33:47;35.55;;;18.75;;
5343;SDS011;2694;48.950;8.970;2022-12-10T11:36:24;32.35;;;16.55;;
5343;SDS011;2694;48.950;8.970;2022-12-10T11:39:10;30.70;;;17.63;;
5343;SDS011;2694;48.950;8.970;2022-12-10T11:41:48;33.72;;;18.30;;
5343;SDS011;2694;48.950;8.970;2022-12-10T11:44:23;39.20;;;19.42;;
5343;SDS011;2694;48.950;8.970;2022-12-10T11:47:01;34.38;;;18.23;;
5343;SDS011;2694;48.950;8.970;2022-12-10T11:49:53;32.22;;;17.90;;
5343;SDS011;2694;48.950;8.970;2022-12-10T11:52:30;29.80;;;17.17;;
5343;SDS011;2694;48.950;8.970;2022-12-10T11:55:11;35.53;;;17.65;;
5343;SDS011;2694;48.950;8.970;2022-12-10T11:57:51;32.15;;;17.70;;
5343;SDS011;2694;48.950;8.970;2022-12-10T12:00:44;37.60;;;18.90;;
5343;SDS011;2694;48.950;8.970;2022-12-10T12:03:38;32.95;;;17.60;;
5343;SDS011;2694;48.950;8.970;2022-12-10T12:06:29;32.72;;;17.23;;
5343;SDS011;2694;48.950;8.970;2022-12-10T12:09:11;31.17;;;17.25;;
5343;SDS011;2694;48.950;8.970;2022-12-10T12:11:57;32.70;;;16.40;;
5343;SDS011;2694;48.950;8.970;2022-12-10T12:14:41;30.95;;;16.27;;
5343;SDS011;2694;48.950;8.970;2022-12-10T12:17:19;31.65;;;16.77;;
5343;SDS011;2694;48.950;8.970;2022-12-10T12:19:50;29.50;;;16.30;;
5343;SDS011;2694;48.950;8.970;2022-12-10T12:22:22;30.00;;;16.30;;
5343;SDS011;2694;48.950;8.970;2022-12-10T12:24:52;27.88;;;15.80;;
5343;SDS011;2694;48.950;8.970;2022-12-10T12:27:25;29.33;;;16.50;;
5343;SDS011;2694;48.950;8.970;2022-12-10T12:30:00;31.58;;;16.35;;
5343;SDS011;2694;48.950;8.970;2022-12-10T12:32:31;30.48;;;15.82;;
5343;SDS011;2694;48.950;8.970;2022-12-10T12:35:09;26.08;;;15.02;;
5343;SDS011;2694;48.950;8.970;2022-12-10T12:37:41;28.60;;;16.00;;
5343;SDS011;2694;48.950;8.970;2022-12-10T12:40:21;28.27;;;14.98;;
5343;SDS011;2694;48.950;8.970;2022-12-10T12:42:58;29.63;;;14.93;;
5343;SDS011;2694;48.950;8.970;2022-12-10T12:45:31;39.67;;;17.75;;
5343;SDS011;2694;48.950;8.970;2022-12-10T12:48:17;33.65;;;16.67;;
5343;SDS011;2694;48.950;8.970;2022-12-10T12:50:53;29.07;;;15.90;;
5343;SDS011;2694;48.950;8.970;2022-12-10T12:53:25;28.17;;;15.95;;
5343;SDS011;2694;48.950;8.970;2022-12-10T12:55:55;29.80;;;14.48;;
5343;SDS011;2694;48.950;8.970;2022-12-10T12:58:33;28.48;;;15.48;;
5343;SDS011;2694;48.950;8.970;2022-12-10T13:01:08;27.17;;;14.30;;
5343;SDS011;2694;48.950;8.970;2022-12-10T13:03:44;32.05;;;15.57;;
5343;SDS011;2694;48.950;8.970;2022-12-10T13:06:16;28.83;;;15.45;;
5343;SDS011;2694;48.950;8.970;2022-12-10T13:08:47;26.25;;;14.45;;
5343;SDS011;2694;48.950;8.970;2022-12-10T13:11:19;27.58;;;15.60;;
5343;SDS011;2694;48.950;8.970;2022-12-10T13:19:53;29.75;;;14.95;;
5343;SDS011;2694;48.950;8.970;2022-12-10T13:22:41;30.38;;;15.45;;
5343;SDS011;2694;48.950;8.970;2022-12-10T13:25:11;30.53;;;15.33;;
5343;SDS011;2694;48.950;8.970;2022-12-10T13:27:41;31.42;;;16.15;;
5343;SDS011;2694;48.950;8.970;2022-12-10T13:30:30;29.00;;;15.95;;
5343;SDS011;2694;48.950;8.970;2022-12-10T13:33:05;28.88;;;15.65;;
5343;SDS011;2694;48.950;8.970;2022-12-10T13:35:49;30.60;;;16.00;;
5343;SDS011;2694;48.950;8.970;2022-12-10T13:38:23;32.38;;;16.95;;
5343;SDS011;2694;48.950;8.970;2022-12-10T13:40:59;29.58;;;15.73;;
5343;SDS011;2694;48.950;8.970;2022-12-10T13:43:52;29.83;;;15.57;;
5343;SDS011;2694;48.950;8.970;2022-12-10T13:46:50;28.50;;;14.95;;
5343;SDS011;2694;48.950;8.970;2022-12-10T13:49:50;30.67;;;15.68;;
5343;SDS011;2694;48.950;8.970;2022-12-10T13:52:35;32.00;;;15.63;;
5343;SDS011;2694;48.950;8.970;2022-12-10T13:55:26;28.73;;;15.15;;
5343;SDS011;2694;48.950;8.970;2022-12-10T13:58:09;34.13;;;16.40;;
5343;SDS011;2694;48.950;8.970;2022-12-10T14:00:54;31.65;;;15.80;;
5343;SDS011;2694;48.950;8.970;2022-12-10T14:03:31;32.85;;;15.90;;
5343;SDS011;2694;48.950;8.970;2022-12-10T14:06:12;34.07;;;17.00;;
5343;SDS011;2694;48.950;8.970;2022-12-10T14:08:52;35.47;;;16.23;;
5343;SDS011;2694;48.950;8.970;2022-12-10T14:11:24;29.88;;;16.23;;
5343;SDS011;2694;48.950;8.970;2022-12-10T14:13:55;31.88;;;16.33;;
5343;SDS011;2694;48.950;8.970;2022-12-10T14:16:24;31.70;;;16.65;;
5343;SDS011;2694;48.950;8.970;2022-12-10T14:18:56;32.13;;;17.27;;
5343;SDS011;2694;48.950;8.970;2022-12-10T14:21:25;29.42;;;15.57;;
5343;SDS011;2694;48.950;8.970;2022-12-10T14:23:53;31.95;;;16.55;;
5343;SDS011;2694;48.950;8.970;2022-12-10T14:26:22;30.25;;;16.00;;
5343;SDS011;2694;48.950;8.970;2022-12-10T14:28:54;27.00;;;15.10;;
5343;SDS011;2694;48.950;8.970;2022-12-10T14:31:25;32.17;;;15.07;;
5343;SDS011;2694;48.950;8.970;2022-12-10T14:33:58;25.33;;;14.25;;
5343;SDS011;2694;48.950;8.970;2022-12-10T14:36:28;25.30;;;14.47;;
5343;SDS011;2694;48.950;8.970;2022-12-10T14:38:56;26.02;;;14.07;;
5343;SDS011;2694;48.950;8.970;2022-12-10T14:41:24;21.10;;;12.50;;
5343;SDS011;2694;48.950;8.970;2022-12-10T14:43:54;26.73;;;13.38;;
5343;SDS011;2694;48.950;8.970;2022-12-10T14:46:24;23.38;;;12.80;;
5343;SDS011;2694;48.950;8.970;2022-12-10T14:48:54;24.92;;;13.80;;
5343;SDS011;2694;48.950;8.970;2022-12-10T14:51:23;26.23;;;13.68;;
5343;SDS011;2694;48.950;8.970;2022-12-10T14:53:53;26.05;;;14.15;;
5343;SDS011;2694;48.950;8.970;2022-12-10T14:56:23;25.98;;;14.00;;
5343;SDS011;2694;48.950;8.970;2022-12-10T14:58:55;25.75;;;14.25;;
5343;SDS011;2694;48.950;8.970;2022-12-10T15:01:28;24.55;;;13.77;;
5343;SDS011;2694;48.950;8.970;2022-12-10T15:03:58;28.85;;;14.80;;
5343;SDS011;2694;48.950;8.970;2022-12-10T15:06:31;38.35;;;16.67;;
5343;SDS011;2694;48.950;8.970;2022-12-10T15:09:00;31.80;;;15.30;;
5343;SDS011;2694;48.950;8.970;2022-12-10T15:11:27;35.85;;;17.73;;
5343;SDS011;2694;48.950;8.970;2022-12-10T15:13:56;39.15;;;17.35;;
5343;SDS011;2694;48.950;8.970;2022-12-10T15:16:29;47.97;;;20.15;;
5343;SDS011;2694;48.950;8.970;2022-12-10T15:21:54;52.67;;;23.20;;
5343;SDS011;2694;48.950;8.970;2022-12-10T15:24:26;47.40;;;21.77;;
5343;SDS011;2694;48.950;8.970;2022-12-10T15:26:56;44.05;;;20.80;;